METAR Data
IDs: Format: Raw Decoded Include TAF

Data at: 0154 UTC 20 Jan 2022

KBVS 200135Z AUTO 00000KT 10SM OVC033 09/07 A3026 RMK A01